sensor_id;sensor_type;location;lat;lon;timestamp;P1;durP1;ratioP1;P2;durP2;ratioP2
75285;SDS011;63879;46.064;14.532;2023-02-18T07:03:06;74.30;;;30.85;;
75285;SDS011;63879;46.064;14.532;2023-02-18T07:05:31;76.47;;;30.15;;
75285;SDS011;63879;46.064;14.532;2023-02-18T07:07:57;79.33;;;30.93;;
75285;SDS011;63879;46.064;14.532;2023-02-18T07:10:22;78.73;;;30.87;;
75285;SDS011;63879;46.064;14.532;2023-02-18T07:12:48;76.57;;;30.30;;
75285;SDS011;63879;46.064;14.532;2023-02-18T07:15:14;79.03;;;29.45;;
75285;SDS011;63879;46.064;14.532;2023-02-18T07:17:39;71.63;;;29.90;;
75285;SDS011;63879;46.064;14.532;2023-02-18T07:20:05;81.30;;;32.63;;
75285;SDS011;63879;46.064;14.532;2023-02-18T07:22:31;79.22;;;30.35;;
75285;SDS011;63879;46.064;14.532;2023-02-18T07:24:56;74.65;;;29.67;;
75285;SDS011;63879;46.064;14.532;2023-02-18T07:27:22;71.53;;;30.10;;
75285;SDS011;63879;46.064;14.532;2023-02-18T07:29:47;73.63;;;31.43;;
75285;SDS011;63879;46.064;14.532;2023-02-18T07:32:13;69.35;;;27.75;;
75285;SDS011;63879;46.064;14.532;2023-02-18T07:34:40;73.45;;;33.90;;
75285;SDS011;63879;46.064;14.532;2023-02-18T07:37:05;71.47;;;30.73;;
75285;SDS011;63879;46.064;14.532;2023-02-18T07:39:38;67.78;;;28.00;;
75285;SDS011;63879;46.064;14.532;2023-02-18T07:42:04;67.00;;;28.27;;
75285;SDS011;63879;46.064;14.532;2023-02-18T07:44:30;66.80;;;28.30;;
75285;SDS011;63879;46.064;14.532;2023-02-18T07:46:58;71.28;;;29.00;;
75285;SDS011;63879;46.064;14.532;2023-02-18T07:49:23;73.18;;;28.60;;
75285;SDS011;63879;46.064;14.532;2023-02-18T07:51:49;69.72;;;29.70;;
75285;SDS011;63879;46.064;14.532;2023-02-18T07:54:15;76.63;;;30.48;;
75285;SDS011;63879;46.064;14.532;2023-02-18T07:56:42;67.90;;;28.33;;
75285;SDS011;63879;46.064;14.532;2023-02-18T07:59:08;74.40;;;30.02;;
75285;SDS011;63879;46.064;14.532;2023-02-18T08:01:33;76.40;;;29.92;;
75285;SDS011;63879;46.064;14.532;2023-02-18T08:20:14;65.40;;;25.42;;
75285;SDS011;63879;46.064;14.532;2023-02-18T08:22:40;65.95;;;27.58;;
75285;SDS011;63879;46.064;14.532;2023-02-18T08:25:05;75.43;;;29.60;;
75285;SDS011;63879;46.064;14.532;2023-02-18T08:27:31;68.95;;;27.13;;
75285;SDS011;63879;46.064;14.532;2023-02-18T08:29:56;69.33;;;29.37;;
75285;SDS011;63879;46.064;14.532;2023-02-18T08:32:22;64.28;;;28.20;;
75285;SDS011;63879;46.064;14.532;2023-02-18T08:34:51;67.80;;;30.10;;
75285;SDS011;63879;46.064;14.532;2023-02-18T08:37:16;63.43;;;26.47;;
75285;SDS011;63879;46.064;14.532;2023-02-18T08:39:42;65.50;;;28.83;;
75285;SDS011;63879;46.064;14.532;2023-02-18T08:42:07;69.50;;;27.55;;
75285;SDS011;63879;46.064;14.532;2023-02-18T08:44:33;60.75;;;26.45;;
75285;SDS011;63879;46.064;14.532;2023-02-18T08:46:58;58.70;;;24.07;;
75285;SDS011;63879;46.064;14.532;2023-02-18T08:49:24;54.67;;;23.63;;
75285;SDS011;63879;46.064;14.532;2023-02-18T08:51:49;59.10;;;24.90;;
75285;SDS011;63879;46.064;14.532;2023-02-18T08:54:15;56.58;;;24.05;;
75285;SDS011;63879;46.064;14.532;2023-02-18T08:56:41;58.33;;;24.02;;
75285;SDS011;63879;46.064;14.532;2023-02-18T08:59:07;53.05;;;23.73;;
75285;SDS011;63879;46.064;14.532;2023-02-18T09:01:32;61.80;;;27.15;;
75285;SDS011;63879;46.064;14.532;2023-02-18T09:03:58;59.25;;;24.08;;
75285;SDS011;63879;46.064;14.532;2023-02-18T09:06:23;50.47;;;20.30;;
75285;SDS011;63879;46.064;14.532;2023-02-18T09:08:49;56.40;;;24.08;;
75285;SDS011;63879;46.064;14.532;2023-02-18T09:11:16;56.13;;;22.98;;
75285;SDS011;63879;46.064;14.532;2023-02-18T09:13:42;54.97;;;21.65;;
75285;SDS011;63879;46.064;14.532;2023-02-18T09:16:10;53.83;;;21.20;;
75285;SDS011;63879;46.064;14.532;2023-02-18T09:18:42;51.50;;;21.33;;
75285;SDS011;63879;46.064;14.532;2023-02-18T09:21:09;52.25;;;22.48;;
75285;SDS011;63879;46.064;14.532;2023-02-18T09:23:36;49.47;;;21.60;;
75285;SDS011;63879;46.064;14.532;2023-02-18T09:26:05;56.53;;;22.80;;
75285;SDS011;63879;46.064;14.532;2023-02-18T09:28:32;52.65;;;22.85;;
75285;SDS011;63879;46.064;14.532;2023-02-18T09:31:02;50.45;;;21.95;;
75285;SDS011;63879;46.064;14.532;2023-02-18T09:33:30;47.95;;;22.08;;
75285;SDS011;63879;46.064;14.532;2023-02-18T09:35:55;48.77;;;21.00;;
75285;SDS011;63879;46.064;14.532;2023-02-18T09:38:21;50.00;;;21.52;;
75285;SDS011;63879;46.064;14.532;2023-02-18T09:40:47;49.13;;;21.33;;
75285;SDS011;63879;46.064;14.532;2023-02-18T09:43:18;45.75;;;21.17;;
75285;SDS011;63879;46.064;14.532;2023-02-18T09:45:50;49.88;;;22.50;;
75285;SDS011;63879;46.064;14.532;2023-02-18T09:48:16;54.78;;;24.38;;
75285;SDS011;63879;46.064;14.532;2023-02-18T09:50:46;50.38;;;21.92;;
75285;SDS011;63879;46.064;14.532;2023-02-18T09:53:13;49.15;;;20.60;;
75285;SDS011;63879;46.064;14.532;2023-02-18T09:55:39;44.58;;;20.55;;
75285;SDS011;63879;46.064;14.532;2023-02-18T09:58:18;47.65;;;20.60;;
75285;SDS011;63879;46.064;14.532;2023-02-18T10:00:50;49.83;;;23.40;;
75285;SDS011;63879;46.064;14.532;2023-02-18T10:03:18;49.45;;;21.50;;
75285;SDS011;63879;46.064;14.532;2023-02-18T10:11:13;44.58;;;20.38;;
75285;SDS011;63879;46.064;14.532;2023-02-18T10:13:41;41.03;;;18.42;;
75285;SDS011;63879;46.064;14.532;2023-02-18T10:16:06;45.50;;;19.80;;
75285;SDS011;63879;46.064;14.532;2023-02-18T10:18:35;45.05;;;20.17;;
75285;SDS011;63879;46.064;14.532;2023-02-18T10:21:11;46.70;;;20.08;;
75285;SDS011;63879;46.064;14.532;2023-02-18T10:23:39;48.17;;;21.17;;
75285;SDS011;63879;46.064;14.532;2023-02-18T10:26:17;48.58;;;20.60;;
75285;SDS011;63879;46.064;14.532;2023-02-18T10:28:44;52.30;;;21.52;;
75285;SDS011;63879;46.064;14.532;2023-02-18T10:31:10;50.00;;;22.05;;
75285;SDS011;63879;46.064;14.532;2023-02-18T10:33:52;48.55;;;21.52;;
75285;SDS011;63879;46.064;14.532;2023-02-18T10:36:45;46.92;;;22.02;;
75285;SDS011;63879;46.064;14.532;2023-02-18T10:44:40;48.30;;;21.35;;
75285;SDS011;63879;46.064;14.532;2023-02-18T10:47:46;45.83;;;21.70;;
75285;SDS011;63879;46.064;14.532;2023-02-18T10:50:24;47.40;;;20.55;;
75285;SDS011;63879;46.064;14.532;2023-02-18T10:52:54;41.97;;;19.50;;
75285;SDS011;63879;46.064;14.532;2023-02-18T10:58:21;45.50;;;19.33;;
75285;SDS011;63879;46.064;14.532;2023-02-18T11:00:51;45.75;;;20.42;;
75285;SDS011;63879;46.064;14.532;2023-02-18T11:03:18;45.65;;;24.33;;
75285;SDS011;63879;46.064;14.532;2023-02-18T11:05:46;49.30;;;19.23;;
75285;SDS011;63879;46.064;14.532;2023-02-18T11:08:15;50.67;;;25.13;;
75285;SDS011;63879;46.064;14.532;2023-02-18T11:10:43;47.63;;;19.67;;
75285;SDS011;63879;46.064;14.532;2023-02-18T11:13:11;44.88;;;19.80;;
75285;SDS011;63879;46.064;14.532;2023-02-18T11:15:37;44.95;;;20.80;;
75285;SDS011;63879;46.064;14.532;2023-02-18T11:21:00;47.03;;;22.58;;
75285;SDS011;63879;46.064;14.532;2023-02-18T11:23:26;46.90;;;20.42;;
75285;SDS011;63879;46.064;14.532;2023-02-18T11:26:02;45.58;;;18.83;;
75285;SDS011;63879;46.064;14.532;2023-02-18T11:28:41;44.28;;;18.92;;
75285;SDS011;63879;46.064;14.532;2023-02-18T11:31:08;47.20;;;18.40;;
75285;SDS011;63879;46.064;14.532;2023-02-18T11:33:41;46.00;;;19.73;;
75285;SDS011;63879;46.064;14.532;2023-02-18T11:36:27;41.38;;;20.67;;
75285;SDS011;63879;46.064;14.532;2023-02-18T11:38:55;41.80;;;18.98;;
75285;SDS011;63879;46.064;14.532;2023-02-18T11:41:33;40.17;;;19.23;;
75285;SDS011;63879;46.064;14.532;2023-02-18T11:44:00;37.75;;;16.95;;
75285;SDS011;63879;46.064;14.532;2023-02-18T11:46:26;43.35;;;20.40;;
75285;SDS011;63879;46.064;14.532;2023-02-18T11:48:53;40.30;;;19.02;;
75285;SDS011;63879;46.064;14.532;2023-02-18T11:51:21;42.40;;;18.52;;
75285;SDS011;63879;46.064;14.532;2023-02-18T11:53:53;36.58;;;16.50;;
75285;SDS011;63879;46.064;14.532;2023-02-18T11:56:28;40.47;;;19.27;;
75285;SDS011;63879;46.064;14.532;2023-02-18T11:58:55;43.42;;;19.95;;
75285;SDS011;63879;46.064;14.532;2023-02-18T12:03:57;39.45;;;18.27;;
75285;SDS011;63879;46.064;14.532;2023-02-18T12:09:31;36.22;;;16.30;;
75285;SDS011;63879;46.064;14.532;2023-02-18T12:12:12;38.30;;;17.35;;
75285;SDS011;63879;46.064;14.532;2023-02-18T12:14:40;34.70;;;17.65;;
75285;SDS011;63879;46.064;14.532;2023-02-18T12:17:11;46.03;;;20.10;;
75285;SDS011;63879;46.064;14.532;2023-02-18T12:19:52;37.38;;;17.13;;
75285;SDS011;63879;46.064;14.532;2023-02-18T12:25:23;40.72;;;17.73;;
75285;SDS011;63879;46.064;14.532;2023-02-18T12:37:02;26.48;;;12.23;;
75285;SDS011;63879;46.064;14.532;2023-02-18T12:42:31;29.45;;;12.38;;
75285;SDS011;63879;46.064;14.532;2023-02-18T13:13:03;33.63;;;16.25;;
75285;SDS011;63879;46.064;14.532;2023-02-18T13:18:03;37.30;;;16.90;;
75285;SDS011;63879;46.064;14.532;2023-02-18T13:23:05;34.70;;;17.17;;
75285;SDS011;63879;46.064;14.532;2023-02-18T13:25:33;36.90;;;18.05;;
75285;SDS011;63879;46.064;14.532;2023-02-18T13:31:00;32.55;;;15.45;;
75285;SDS011;63879;46.064;14.532;2023-02-18T13:34:03;29.95;;;14.38;;
75285;SDS011;63879;46.064;14.532;2023-02-18T13:39:45;32.67;;;16.08;;
75285;SDS011;63879;46.064;14.532;2023-02-18T13:47:12;31.75;;;15.23;;
75285;SDS011;63879;46.064;14.532;2023-02-18T13:50:14;30.27;;;15.57;;
75285;SDS011;63879;46.064;14.532;2023-02-18T13:52:46;30.10;;;15.98;;
75285;SDS011;63879;46.064;14.532;2023-02-18T13:55:22;29.67;;;15.32;;
75285;SDS011;63879;46.064;14.532;2023-02-18T13:57:52;34.85;;;16.63;;
75285;SDS011;63879;46.064;14.532;2023-02-18T14:00:20;28.30;;;14.68;;
75285;SDS011;63879;46.064;14.532;2023-02-18T14:03:00;28.17;;;14.23;;
75285;SDS011;63879;46.064;14.532;2023-02-18T14:05:40;33.80;;;17.98;;
75285;SDS011;63879;46.064;14.532;2023-02-18T14:08:10;32.83;;;15.40;;
75285;SDS011;63879;46.064;14.532;2023-02-18T14:10:37;30.77;;;15.20;;
75285;SDS011;63879;46.064;14.532;2023-02-18T14:15:47;30.02;;;14.63;;
75285;SDS011;63879;46.064;14.532;2023-02-18T14:18:22;28.27;;;14.43;;
75285;SDS011;63879;46.064;14.532;2023-02-18T14:20:50;32.75;;;15.50;;
75285;SDS011;63879;46.064;14.532;2023-02-18T14:25:51;30.10;;;14.52;;
75285;SDS011;63879;46.064;14.532;2023-02-18T14:28:37;31.77;;;17.02;;
75285;SDS011;63879;46.064;14.532;2023-02-18T14:33:38;29.63;;;14.52;;
75285;SDS011;63879;46.064;14.532;2023-02-18T14:45:32;30.83;;;15.27;;
75285;SDS011;63879;46.064;14.532;2023-02-18T14:50:46;28.40;;;14.85;;
75285;SDS011;63879;46.064;14.532;2023-02-18T14:53:13;31.63;;;15.30;;
75285;SDS011;63879;46.064;14.532;2023-02-18T14:55:43;28.80;;;14.73;;
75285;SDS011;63879;46.064;14.532;2023-02-18T14:58:24;28.67;;;12.25;;
75285;SDS011;63879;46.064;14.532;2023-02-18T15:00:53;29.65;;;15.18;;
75285;SDS011;63879;46.064;14.532;2023-02-18T15:03:19;33.15;;;14.65;;
75285;SDS011;63879;46.064;14.532;2023-02-18T15:05:46;27.45;;;14.15;;
75285;SDS011;63879;46.064;14.532;2023-02-18T15:08:15;30.00;;;15.23;;
75285;SDS011;63879;46.064;14.532;2023-02-18T15:13:30;28.17;;;13.60;;
75285;SDS011;63879;46.064;14.532;2023-02-18T15:16:04;31.80;;;14.85;;
75285;SDS011;63879;46.064;14.532;2023-02-18T15:21:03;25.48;;;12.95;;
75285;SDS011;63879;46.064;14.532;2023-02-18T15:23:30;27.65;;;14.13;;
75285;SDS011;63879;46.064;14.532;2023-02-18T15:25:56;32.78;;;16.77;;
75285;SDS011;63879;46.064;14.532;2023-02-18T15:28:23;28.77;;;14.52;;
75285;SDS011;63879;46.064;14.532;2023-02-18T15:30:57;29.33;;;13.63;;
75285;SDS011;63879;46.064;14.532;2023-02-18T15:33:24;25.05;;;12.10;;
75285;SDS011;63879;46.064;14.532;2023-02-18T15:35:50;30.75;;;14.27;;
75285;SDS011;63879;46.064;14.532;2023-02-18T15:38:16;27.60;;;15.52;;
75285;SDS011;63879;46.064;14.532;2023-02-18T15:40:43;28.00;;;14.43;;
75285;SDS011;63879;46.064;14.532;2023-02-18T15:43:16;26.83;;;12.85;;
75285;SDS011;63879;46.064;14.532;2023-02-18T15:45:45;29.17;;;14.30;;
75285;SDS011;63879;46.064;14.532;2023-02-18T15:48:18;25.70;;;13.15;;
75285;SDS011;63879;46.064;14.532;2023-02-18T15:50:52;23.92;;;12.85;;
75285;SDS011;63879;46.064;14.532;2023-02-18T15:53:18;27.77;;;14.10;;
75285;SDS011;63879;46.064;14.532;2023-02-18T15:55:45;26.75;;;13.55;;
75285;SDS011;63879;46.064;14.532;2023-02-18T15:58:16;27.13;;;14.63;;
75285;SDS011;63879;46.064;14.532;2023-02-18T16:00:48;28.92;;;14.30;;
75285;SDS011;63879;46.064;14.532;2023-02-18T16:03:27;29.02;;;14.50;;
75285;SDS011;63879;46.064;14.532;2023-02-18T16:06:17;29.73;;;15.18;;
75285;SDS011;63879;46.064;14.532;2023-02-18T16:11:41;31.23;;;16.90;;
75285;SDS011;63879;46.064;14.532;2023-02-18T16:19:38;28.58;;;14.50;;
75285;SDS011;63879;46.064;14.532;2023-02-18T16:24:54;25.83;;;12.47;;
75285;SDS011;63879;46.064;14.532;2023-02-18T16:27:36;30.17;;;13.50;;
75285;SDS011;63879;46.064;14.532;2023-02-18T16:30:24;28.75;;;14.30;;
75285;SDS011;63879;46.064;14.532;2023-02-18T16:32:52;29.70;;;13.77;;
75285;SDS011;63879;46.064;14.532;2023-02-18T16:35:18;27.25;;;13.82;;
75285;SDS011;63879;46.064;14.532;2023-02-18T16:37:45;26.33;;;13.57;;
75285;SDS011;63879;46.064;14.532;2023-02-18T16:40:21;27.05;;;13.45;;
75285;SDS011;63879;46.064;14.532;2023-02-18T16:42:55;27.63;;;13.88;;
75285;SDS011;63879;46.064;14.532;2023-02-18T16:45:23;31.38;;;14.07;;
75285;SDS011;63879;46.064;14.532;2023-02-18T16:47:55;27.73;;;14.55;;
75285;SDS011;63879;46.064;14.532;2023-02-18T16:50:20;26.40;;;13.38;;
75285;SDS011;63879;46.064;14.532;2023-02-18T16:52:46;25.77;;;13.18;;
75285;SDS011;63879;46.064;14.532;2023-02-18T16:55:23;26.92;;;13.35;;
75285;SDS011;63879;46.064;14.532;2023-02-18T16:57:49;23.60;;;13.10;;
75285;SDS011;63879;46.064;14.532;2023-02-18T17:00:15;29.40;;;13.93;;
75285;SDS011;63879;46.064;14.532;2023-02-18T17:02:42;29.25;;;13.85;;
75285;SDS011;63879;46.064;14.532;2023-02-18T17:05:15;28.75;;;13.43;;
75285;SDS011;63879;46.064;14.532;2023-02-18T17:07:42;25.10;;;12.93;;
75285;SDS011;63879;46.064;14.532;2023-02-18T17:10:08;24.83;;;12.67;;
75285;SDS011;63879;46.064;14.532;2023-02-18T17:12:33;25.88;;;13.13;;
75285;SDS011;63879;46.064;14.532;2023-02-18T17:14:59;27.45;;;13.50;;
75285;SDS011;63879;46.064;14.532;2023-02-18T17:17:24;26.55;;;12.57;;
75285;SDS011;63879;46.064;14.532;2023-02-18T17:19:51;27.40;;;12.93;;
75285;SDS011;63879;46.064;14.532;2023-02-18T17:22:17;23.53;;;14.70;;
75285;SDS011;63879;46.064;14.532;2023-02-18T17:24:42;23.95;;;11.98;;
75285;SDS011;63879;46.064;14.532;2023-02-18T17:27:08;24.20;;;12.38;;
75285;SDS011;63879;46.064;14.532;2023-02-18T17:29:35;21.80;;;11.77;;
75285;SDS011;63879;46.064;14.532;2023-02-18T17:32:00;23.83;;;11.93;;
75285;SDS011;63879;46.064;14.532;2023-02-18T17:34:27;29.73;;;13.88;;
75285;SDS011;63879;46.064;14.532;2023-02-18T17:36:54;24.50;;;12.52;;
75285;SDS011;63879;46.064;14.532;2023-02-18T17:39:23;25.35;;;12.65;;
75285;SDS011;63879;46.064;14.532;2023-02-18T17:41:48;20.35;;;10.13;;
75285;SDS011;63879;46.064;14.532;2023-02-18T17:44:15;25.55;;;11.30;;
75285;SDS011;63879;46.064;14.532;2023-02-18T17:46:42;22.50;;;10.82;;
75285;SDS011;63879;46.064;14.532;2023-02-18T17:49:07;22.25;;;12.32;;
75285;SDS011;63879;46.064;14.532;2023-02-18T17:51:33;21.95;;;12.35;;
75285;SDS011;63879;46.064;14.532;2023-02-18T17:54:00;21.35;;;10.95;;
75285;SDS011;63879;46.064;14.532;2023-02-18T17:56:26;22.83;;;13.60;;
75285;SDS011;63879;46.064;14.532;2023-02-18T17:58:51;22.10;;;11.23;;
75285;SDS011;63879;46.064;14.532;2023-02-18T18:01:17;21.17;;;12.10;;
75285;SDS011;63879;46.064;14.532;2023-02-18T18:03:44;21.35;;;9.88;;
75285;SDS011;63879;46.064;14.532;2023-02-18T18:06:15;22.10;;;10.85;;
75285;SDS011;63879;46.064;14.532;2023-02-18T18:08:41;20.65;;;11.30;;
75285;SDS011;63879;46.064;14.532;2023-02-18T18:11:08;23.42;;;12.63;;
75285;SDS011;63879;46.064;14.532;2023-02-18T18:13:37;18.85;;;11.88;;
75285;SDS011;63879;46.064;14.532;2023-02-18T18:16:03;21.98;;;11.13;;
75285;SDS011;63879;46.064;14.532;2023-02-18T18:18:29;19.83;;;9.73;;
75285;SDS011;63879;46.064;14.532;2023-02-18T18:20:58;20.90;;;10.73;;
75285;SDS011;63879;46.064;14.532;2023-02-18T18:23:24;21.83;;;10.35;;
75285;SDS011;63879;46.064;14.532;2023-02-18T18:25:51;19.85;;;10.10;;
75285;SDS011;63879;46.064;14.532;2023-02-18T18:28:17;20.52;;;10.27;;
75285;SDS011;63879;46.064;14.532;2023-02-18T18:30:44;21.23;;;9.82;;
75285;SDS011;63879;46.064;14.532;2023-02-18T18:33:14;19.92;;;10.77;;
75285;SDS011;63879;46.064;14.532;2023-02-18T18:35:45;22.17;;;10.52;;
75285;SDS011;63879;46.064;14.532;2023-02-18T18:38:13;20.13;;;10.02;;
75285;SDS011;63879;46.064;14.532;2023-02-18T18:40:40;21.33;;;11.02;;
75285;SDS011;63879;46.064;14.532;2023-02-18T18:43:05;18.58;;;10.43;;
75285;SDS011;63879;46.064;14.532;2023-02-18T18:45:32;19.80;;;10.95;;
75285;SDS011;63879;46.064;14.532;2023-02-18T18:47:59;17.67;;;9.15;;
75285;SDS011;63879;46.064;14.532;2023-02-18T18:50:25;20.00;;;9.77;;
75285;SDS011;63879;46.064;14.532;2023-02-18T18:52:51;21.73;;;9.70;;
75285;SDS011;63879;46.064;14.532;2023-02-18T18:57:56;20.40;;;10.38;;
75285;SDS011;63879;46.064;14.532;2023-02-18T19:02:55;17.77;;;9.13;;
75285;SDS011;63879;46.064;14.532;2023-02-18T19:05:23;17.77;;;9.65;;
75285;SDS011;63879;46.064;14.532;2023-02-18T19:07:50;17.45;;;8.85;;
75285;SDS011;63879;46.064;14.532;2023-02-18T19:10:16;17.52;;;8.77;;
75285;SDS011;63879;46.064;14.532;2023-02-18T19:12:41;17.85;;;9.75;;
75285;SDS011;63879;46.064;14.532;2023-02-18T19:15:09;18.95;;;9.27;;
75285;SDS011;63879;46.064;14.532;2023-02-18T19:17:36;20.88;;;9.70;;
75285;SDS011;63879;46.064;14.532;2023-02-18T19:20:02;22.52;;;11.45;;
75285;SDS011;63879;46.064;14.532;2023-02-18T19:22:28;21.83;;;11.35;;
75285;SDS011;63879;46.064;14.532;2023-02-18T19:24:53;19.88;;;10.63;;
75285;SDS011;63879;46.064;14.532;2023-02-18T19:27:18;22.93;;;9.80;;
75285;SDS011;63879;46.064;14.532;2023-02-18T19:29:44;21.97;;;11.37;;
75285;SDS011;63879;46.064;14.532;2023-02-18T19:32:10;14.88;;;8.32;;
75285;SDS011;63879;46.064;14.532;2023-02-18T19:34:35;20.92;;;10.05;;
75285;SDS011;63879;46.064;14.532;2023-02-18T19:37:01;22.42;;;11.00;;
75285;SDS011;63879;46.064;14.532;2023-02-18T19:39:26;25.63;;;13.03;;
75285;SDS011;63879;46.064;14.532;2023-02-18T19:41:52;23.88;;;11.82;;
75285;SDS011;63879;46.064;14.532;2023-02-18T19:44:17;25.97;;;11.33;;
75285;SDS011;63879;46.064;14.532;2023-02-18T19:46:42;26.02;;;12.25;;
75285;SDS011;63879;46.064;14.532;2023-02-18T19:51:35;26.50;;;11.90;;
75285;SDS011;63879;46.064;14.532;2023-02-18T19:54:01;27.67;;;12.40;;
75285;SDS011;63879;46.064;14.532;2023-02-18T19:56:26;30.75;;;13.40;;
75285;SDS011;63879;46.064;14.532;2023-02-18T19:58:55;28.08;;;12.95;;
75285;SDS011;63879;46.064;14.532;2023-02-18T20:01:20;26.67;;;13.48;;
75285;SDS011;63879;46.064;14.532;2023-02-18T20:03:47;28.77;;;14.27;;
75285;SDS011;63879;46.064;14.532;2023-02-18T20:06:14;28.75;;;14.18;;
75285;SDS011;63879;46.064;14.532;2023-02-18T20:08:43;30.85;;;13.80;;
75285;SDS011;63879;46.064;14.532;2023-02-18T20:11:09;30.38;;;16.80;;
75285;SDS011;63879;46.064;14.532;2023-02-18T20:13:35;29.80;;;15.13;;
75285;SDS011;63879;46.064;14.532;2023-02-18T20:16:00;28.27;;;12.45;;
75285;SDS011;63879;46.064;14.532;2023-02-18T20:18:25;29.73;;;12.60;;
75285;SDS011;63879;46.064;14.532;2023-02-18T20:20:51;29.02;;;13.32;;
75285;SDS011;63879;46.064;14.532;2023-02-18T20:23:16;28.02;;;13.60;;
75285;SDS011;63879;46.064;14.532;2023-02-18T20:25:42;28.98;;;13.60;;
75285;SDS011;63879;46.064;14.532;2023-02-18T20:28:07;28.75;;;13.98;;
75285;SDS011;63879;46.064;14.532;2023-02-18T20:30:33;31.60;;;15.97;;
75285;SDS011;63879;46.064;14.532;2023-02-18T20:32:58;33.72;;;14.23;;
75285;SDS011;63879;46.064;14.532;2023-02-18T20:35:23;32.53;;;16.02;;
75285;SDS011;63879;46.064;14.532;2023-02-18T20:37:49;32.83;;;14.80;;
75285;SDS011;63879;46.064;14.532;2023-02-18T20:40:15;34.92;;;15.70;;
75285;SDS011;63879;46.064;14.532;2023-02-18T20:42:40;31.70;;;14.60;;
75285;SDS011;63879;46.064;14.532;2023-02-18T20:45:06;30.10;;;14.23;;
75285;SDS011;63879;46.064;14.532;2023-02-18T20:47:32;32.75;;;16.08;;
75285;SDS011;63879;46.064;14.532;2023-02-18T20:49:58;35.78;;;16.75;;
75285;SDS011;63879;46.064;14.532;2023-02-18T20:52:23;34.72;;;15.80;;
75285;SDS011;63879;46.064;14.532;2023-02-18T20:54:50;37.85;;;16.67;;
75285;SDS011;63879;46.064;14.532;2023-02-18T20:57:16;40.17;;;17.20;;
75285;SDS011;63879;46.064;14.532;2023-02-18T20:59:41;40.10;;;20.15;;
75285;SDS011;63879;46.064;14.532;2023-02-18T21:02:07;38.20;;;18.25;;
75285;SDS011;63879;46.064;14.532;2023-02-18T21:04:36;35.55;;;15.95;;
75285;SDS011;63879;46.064;14.532;2023-02-18T21:07:02;42.03;;;17.98;;
75285;SDS011;63879;46.064;14.532;2023-02-18T21:09:27;43.22;;;19.35;;
75285;SDS011;63879;46.064;14.532;2023-02-18T21:11:53;41.38;;;17.80;;
75285;SDS011;63879;46.064;14.532;2023-02-18T21:14:18;42.63;;;18.37;;
75285;SDS011;63879;46.064;14.532;2023-02-18T21:16:43;40.25;;;17.58;;
75285;SDS011;63879;46.064;14.532;2023-02-18T21:19:10;41.30;;;19.83;;
75285;SDS011;63879;46.064;14.532;2023-02-18T21:21:38;41.90;;;16.92;;
75285;SDS011;63879;46.064;14.532;2023-02-18T21:24:04;48.85;;;21.35;;
75285;SDS011;63879;46.064;14.532;2023-02-18T21:26:29;46.15;;;17.98;;
75285;SDS011;63879;46.064;14.532;2023-02-18T21:28:56;44.85;;;19.10;;
75285;SDS011;63879;46.064;14.532;2023-02-18T21:31:28;45.67;;;21.33;;
75285;SDS011;63879;46.064;14.532;2023-02-18T21:33:54;36.70;;;17.27;;
75285;SDS011;63879;46.064;14.532;2023-02-18T21:36:20;50.15;;;19.23;;
75285;SDS011;63879;46.064;14.532;2023-02-18T21:38:50;46.88;;;20.13;;
75285;SDS011;63879;46.064;14.532;2023-02-18T21:41:16;47.30;;;18.55;;
75285;SDS011;63879;46.064;14.532;2023-02-18T21:43:43;45.08;;;20.42;;
75285;SDS011;63879;46.064;14.532;2023-02-18T21:46:09;44.85;;;19.90;;
75285;SDS011;63879;46.064;14.532;2023-02-18T21:48:38;45.08;;;19.42;;
75285;SDS011;63879;46.064;14.532;2023-02-18T21:51:22;48.08;;;21.60;;
75285;SDS011;63879;46.064;14.532;2023-02-18T21:54:06;39.60;;;19.55;;
75285;SDS011;63879;46.064;14.532;2023-02-18T21:56:32;46.95;;;20.80;;
75285;SDS011;63879;46.064;14.532;2023-02-18T21:58:57;43.25;;;17.77;;
